Salishan — WUT4384 — position and weather

sailwx.info

Track history (hours):
 
Tides and Currents Weather Stations Pressure Air Temp Water Temp Dewpoint Dewpoint Depression Visibility Wind Speed Wind Dir Waves Ship Positions

Salishan

Owner: Sause Bros. Inc., COOS BAY, OR. More information available from US FCC via Universal Licensing System and Coast Guard Vessel Documentation Center.

Last reported at 2014-Oct-29 23:32 UTC. Time now 2014-Nov-01 09:52 UTC.
Position N 45°30' W 124°53'.

MMSI: 367007912.

Date/timePositionNaut miles runAvg speedWind from/ knotsBaromVisibWave heightAir tempDewpointWater temp
2014-Oct-29 23:32N 45°30' W 124°53'6 6.3
2014-Oct-29 22:33N 45°36' W 124°53'6 6.0
2014-Oct-29 21:32N 45°42' W 124°54'6 5.9
2014-Oct-29 20:33N 45°48' W 124°55'6 5.8
2014-Oct-29 19:33N 45°54' W 124°56'6 5.9
2014-Oct-29 18:33N 45°60' W 124°57'6 5.9
2014-Oct-29 17:33N 46°06' W 124°59'6 5.9
2014-Oct-29 16:33N 46°11' W 125°00'6 5.8
2014-Oct-29 15:33N 46°17' W 125°00'6 5.8
2014-Oct-29 14:33N 46°23' W 125°01'6 5.8
2014-Oct-29 13:33N 46°29' W 125°02'6 5.8
2014-Oct-29 12:33N 46°34' W 125°03'6 5.9
2014-Oct-29 11:33N 46°40' W 125°04'6 5.8
2014-Oct-29 10:28N 46°47' W 125°05'6 5.9
2014-Oct-29 09:31N 46°52' W 125°06'87 3.5
2014-Oct-28 08:32N 48°19' W 125°01'3 2.2
2014-Oct-28 07:14N 48°21' W 124°59'3 4.2
2014-Oct-28 06:25N 48°24' W 124°56'5 5.7
2014-Oct-28 05:33N 48°26' W 124°50'8 7.9
2014-Oct-28 04:33N 48°25' W 124°38'8 8.5
2014-Oct-28 03:33N 48°21' W 124°26'7 7.5
2014-Oct-28 02:33N 48°18' W 124°16'3 3.2
2014-Oct-28 01:33N 48°16' W 124°12'8 7.8
2014-Oct-28 00:33N 48°20' W 124°22'1211.6
2014-Oct-27 23:33N 48°25' W 124°38'1110.8
2014-Oct-27 22:33N 48°26' W 124°54'1212.3
2014-Oct-27 21:32N 48°15' W 125°02'1212.2
2014-Oct-27 20:33N 48°03' W 125°09'6811.6
2014-Oct-27 14:40N 46°57' W 124°45'211.6
2014-Oct-27 14:32N 46°55' W 124°44'1212.0
2014-Oct-27 13:33N 46°45' W 124°38'112.6
2014-Oct-27 13:30N 46°44' W 124°38'1111.9
2014-Oct-27 12:33N 46°34' W 124°32'1112.0
2014-Oct-27 11:39N 46°24' W 124°26'112.2
2014-Oct-27 11:33N 46°22' W 124°25'412.6
2014-Oct-27 11:14N 46°19' W 124°24'811.9
2014-Oct-27 10:33N 46°11' W 124°20'611.8
2014-Oct-27 10:04N 46°05' W 124°20'611.9
2014-Oct-27 09:34N 45°59' W 124°18'1212.1
2014-Oct-27 08:34N 45°47' W 124°15'1211.8
2014-Oct-27 07:33N 45°36' W 124°13'1312.5
2014-Oct-27 06:33N 45°23' W 124°12'1311.9
2014-Oct-27 05:28N 45°10' W 124°11'  
Track history (hours):
 
Tides and Currents Weather Stations Pressure Air Temp Water Temp Dewpoint Dewpoint Depression Visibility Wind Speed Wind Dir Waves Ship Positions

Salishan

Owner: Sause Bros. Inc., COOS BAY, OR. More information available from US FCC via Universal Licensing System and Coast Guard Vessel Documentation Center.

Last reported at 2014-Oct-29 23:32 UTC. Time now 2014-Nov-01 09:52 UTC.
Position N 45°30' W 124°53'.

MMSI: 367007912.

Date/timePositionNaut miles runAvg speedWind from/ knotsBaromVisibWave heightAir tempDewpointWater temp
2014-Oct-29 23:32N 45°30' W 124°53'6 6.3
2014-Oct-29 22:33N 45°36' W 124°53'6 6.0
2014-Oct-29 21:32N 45°42' W 124°54'6 5.9
2014-Oct-29 20:33N 45°48' W 124°55'6 5.8
2014-Oct-29 19:33N 45°54' W 124°56'6 5.9
2014-Oct-29 18:33N 45°60' W 124°57'6 5.9
2014-Oct-29 17:33N 46°06' W 124°59'6 5.9
2014-Oct-29 16:33N 46°11' W 125°00'6 5.8
2014-Oct-29 15:33N 46°17' W 125°00'6 5.8
2014-Oct-29 14:33N 46°23' W 125°01'6 5.8
2014-Oct-29 13:33N 46°29' W 125°02'6 5.8
2014-Oct-29 12:33N 46°34' W 125°03'6 5.9
2014-Oct-29 11:33N 46°40' W 125°04'6 5.8
2014-Oct-29 10:28N 46°47' W 125°05'6 5.9
2014-Oct-29 09:31N 46°52' W 125°06'87 3.5
2014-Oct-28 08:32N 48°19' W 125°01'3 2.2
2014-Oct-28 07:14N 48°21' W 124°59'3 4.2
2014-Oct-28 06:25N 48°24' W 124°56'5 5.7
2014-Oct-28 05:33N 48°26' W 124°50'8 7.9
2014-Oct-28 04:33N 48°25' W 124°38'8 8.5
2014-Oct-28 03:33N 48°21' W 124°26'7 7.5
2014-Oct-28 02:33N 48°18' W 124°16'3 3.2
2014-Oct-28 01:33N 48°16' W 124°12'8 7.8
2014-Oct-28 00:33N 48°20' W 124°22'1211.6
2014-Oct-27 23:33N 48°25' W 124°38'1110.8
2014-Oct-27 22:33N 48°26' W 124°54'1212.3
2014-Oct-27 21:32N 48°15' W 125°02'1212.2
2014-Oct-27 20:33N 48°03' W 125°09'6811.6
2014-Oct-27 14:40N 46°57' W 124°45'211.6
2014-Oct-27 14:32N 46°55' W 124°44'1212.0
2014-Oct-27 13:33N 46°45' W 124°38'112.6
2014-Oct-27 13:30N 46°44' W 124°38'1111.9
2014-Oct-27 12:33N 46°34' W 124°32'1112.0
2014-Oct-27 11:39N 46°24' W 124°26'112.2
2014-Oct-27 11:33N 46°22' W 124°25'412.6
2014-Oct-27 11:14N 46°19' W 124°24'811.9
2014-Oct-27 10:33N 46°11' W 124°20'611.8
2014-Oct-27 10:04N 46°05' W 124°20'611.9
2014-Oct-27 09:34N 45°59' W 124°18'1212.1
2014-Oct-27 08:34N 45°47' W 124°15'1211.8
2014-Oct-27 07:33N 45°36' W 124°13'1312.5
2014-Oct-27 06:33N 45°23' W 124°12'1311.9
2014-Oct-27 05:28N 45°10' W 124°11'  

Dump ship's entire track history